sensor_id;sensor_type;location;lat;lon;timestamp;pressure;altitude;pressure_sealevel;temperature;humidity
50093;BME280;35974;47.752;10.290;2023-05-02T00:00:14;93923.56;;;8.27;100.00
50093;BME280;35974;47.752;10.290;2023-05-02T00:02:41;93933.13;;;8.20;100.00
50093;BME280;35974;47.752;10.290;2023-05-02T00:05:07;93935.47;;;8.58;100.00
50093;BME280;35974;47.752;10.290;2023-05-02T00:07:34;93945.41;;;8.48;100.00
50093;BME280;35974;47.752;10.290;2023-05-02T00:10:01;93938.81;;;8.30;100.00
50093;BME280;35974;47.752;10.290;2023-05-02T00:12:28;93944.28;;;8.14;100.00
50093;BME280;35974;47.752;10.290;2023-05-02T00:14:54;93947.03;;;8.05;100.00
50093;BME280;35974;47.752;10.290;2023-05-02T00:17:21;93942.19;;;8.02;100.00
50093;BME280;35974;47.752;10.290;2023-05-02T00:19:47;93941.81;;;8.05;100.00
50093;BME280;35974;47.752;10.290;2023-05-02T00:22:18;93944.66;;;8.11;100.00
50093;BME280;35974;47.752;10.290;2023-05-02T00:24:44;93944.28;;;8.14;100.00
50093;BME280;35974;47.752;10.290;2023-05-02T00:27:11;93948.16;;;7.96;100.00
50093;BME280;35974;47.752;10.290;2023-05-02T00:29:37;93954.97;;;7.97;100.00
50093;BME280;35974;47.752;10.290;2023-05-02T00:32:12;93956.97;;;7.95;100.00
50093;BME280;35974;47.752;10.290;2023-05-02T00:34:38;93949.50;;;7.92;100.00
50093;BME280;35974;47.752;10.290;2023-05-02T00:37:05;93949.88;;;7.89;100.00
50093;BME280;35974;47.752;10.290;2023-05-02T00:39:33;93941.69;;;7.92;100.00
50093;BME280;35974;47.752;10.290;2023-05-02T00:41:59;93939.75;;;8.01;100.00
50093;BME280;35974;47.752;10.290;2023-05-02T00:44:32;93933.75;;;8.00;100.00
50093;BME280;35974;47.752;10.290;2023-05-02T00:46:59;93931.88;;;7.94;100.00
50093;BME280;35974;47.752;10.290;2023-05-02T00:49:26;93941.69;;;7.92;100.00
50093;BME280;35974;47.752;10.290;2023-05-02T00:51:53;93941.31;;;7.95;100.00
50093;BME280;35974;47.752;10.290;2023-05-02T00:54:20;93927.69;;;7.93;100.00
50093;BME280;35974;47.752;10.290;2023-05-02T00:56:46;93931.28;;;7.92;100.00
50093;BME280;35974;47.752;10.290;2023-05-02T00:59:13;93931.69;;;7.96;100.00
50093;BME280;35974;47.752;10.290;2023-05-02T01:04:29;93926.50;;;7.96;100.00
50093;BME280;35974;47.752;10.290;2023-05-02T01:10:01;93936.03;;;8.32;100.00
50093;BME280;35974;47.752;10.290;2023-05-02T01:15:04;93937.50;;;7.76;100.00
50093;BME280;35974;47.752;10.290;2023-05-02T01:17:31;93935.56;;;7.63;100.00
50093;BME280;35974;47.752;10.290;2023-05-02T01:19:58;93931.00;;;7.65;100.00
50093;BME280;35974;47.752;10.290;2023-05-02T01:22:27;93936.59;;;7.62;100.00
50093;BME280;35974;47.752;10.290;2023-05-02T01:27:40;93938.34;;;7.77;100.00
50093;BME280;35974;47.752;10.290;2023-05-02T01:30:08;93941.56;;;7.79;100.00
50093;BME280;35974;47.752;10.290;2023-05-02T01:32:37;93936.34;;;7.79;100.00
50093;BME280;35974;47.752;10.290;2023-05-02T01:35:05;93937.16;;;7.79;100.00
50093;BME280;35974;47.752;10.290;2023-05-02T01:37:32;93949.38;;;7.79;100.00
50093;BME280;35974;47.752;10.290;2023-05-02T01:39:59;93945.50;;;7.75;100.00
50093;BME280;35974;47.752;10.290;2023-05-02T01:42:28;93949.50;;;7.70;100.00
50093;BME280;35974;47.752;10.290;2023-05-02T01:44:55;93950.00;;;7.81;100.00
50093;BME280;35974;47.752;10.290;2023-05-02T01:47:23;93943.38;;;7.63;100.00
50093;BME280;35974;47.752;10.290;2023-05-02T01:49:50;93945.16;;;7.78;100.00
50093;BME280;35974;47.752;10.290;2023-05-02T01:52:17;93953.81;;;7.63;100.00
50093;BME280;35974;47.752;10.290;2023-05-02T01:54:44;93951.97;;;7.57;100.00
50093;BME280;35974;47.752;10.290;2023-05-02T01:57:11;93958.16;;;7.56;100.00
50093;BME280;35974;47.752;10.290;2023-05-02T01:59:37;93960.94;;;7.55;100.00
50093;BME280;35974;47.752;10.290;2023-05-02T02:02:06;93951.56;;;7.60;100.00
50093;BME280;35974;47.752;10.290;2023-05-02T02:04:33;93959.78;;;7.57;100.00
50093;BME280;35974;47.752;10.290;2023-05-02T02:07:02;93958.16;;;7.56;100.00
50093;BME280;35974;47.752;10.290;2023-05-02T02:09:31;93964.31;;;7.55;100.00
50093;BME280;35974;47.752;10.290;2023-05-02T02:14:24;93972.16;;;7.55;100.00
50093;BME280;35974;47.752;10.290;2023-05-02T02:16:54;93968.19;;;7.59;100.00
50093;BME280;35974;47.752;10.290;2023-05-02T02:19:21;93968.19;;;7.59;100.00
50093;BME280;35974;47.752;10.290;2023-05-02T02:21:48;93960.38;;;7.59;100.00
50093;BME280;35974;47.752;10.290;2023-05-02T02:24:16;93970.44;;;7.62;100.00
50093;BME280;35974;47.752;10.290;2023-05-02T02:26:56;93970.81;;;7.59;100.00
50093;BME280;35974;47.752;10.290;2023-05-02T02:29:23;93968.19;;;7.59;100.00
50093;BME280;35974;47.752;10.290;2023-05-02T02:31:49;93970.19;;;7.57;100.00
50093;BME280;35974;47.752;10.290;2023-05-02T02:34:15;93967.84;;;7.62;100.00
50093;BME280;35974;47.752;10.290;2023-05-02T02:36:44;93967.84;;;7.62;100.00
50093;BME280;35974;47.752;10.290;2023-05-02T02:39:15;93970.91;;;7.51;100.00
50093;BME280;35974;47.752;10.290;2023-05-02T02:41:58;93970.66;;;7.46;100.00
50093;BME280;35974;47.752;10.290;2023-05-02T02:44:33;93980.97;;;7.39;100.00
50093;BME280;35974;47.752;10.290;2023-05-02T02:47:08;93979.91;;;7.33;100.00
50093;BME280;35974;47.752;10.290;2023-05-02T02:52:32;93971.31;;;7.18;100.00
50093;BME280;35974;47.752;10.290;2023-05-02T02:55:12;93976.50;;;7.18;100.00
50093;BME280;35974;47.752;10.290;2023-05-02T02:57:47;93977.22;;;7.12;100.00
50093;BME280;35974;47.752;10.290;2023-05-02T03:00:20;93983.84;;;7.14;100.00
50093;BME280;35974;47.752;10.290;2023-05-02T03:02:47;93982.44;;;7.12;100.00
50093;BME280;35974;47.752;10.290;2023-05-02T03:05:14;93982.59;;;7.25;100.00
50093;BME280;35974;47.752;10.290;2023-05-02T03:07:40;93990.16;;;7.20;100.00
50093;BME280;35974;47.752;10.290;2023-05-02T03:10:07;93993.28;;;7.30;100.00
50093;BME280;35974;47.752;10.290;2023-05-02T03:12:33;93993.38;;;7.22;100.00
50093;BME280;35974;47.752;10.290;2023-05-02T03:17:46;93995.34;;;7.20;100.00
50093;BME280;35974;47.752;10.290;2023-05-02T03:20:12;94000.91;;;7.17;100.00
50093;BME280;35974;47.752;10.290;2023-05-02T03:22:39;93997.34;;;7.18;100.00
50093;BME280;35974;47.752;10.290;2023-05-02T03:25:05;94000.56;;;7.20;100.00
50093;BME280;35974;47.752;10.290;2023-05-02T03:27:32;94000.91;;;7.17;100.00
50093;BME280;35974;47.752;10.290;2023-05-02T03:29:58;94003.06;;;7.28;100.00
50093;BME280;35974;47.752;10.290;2023-05-02T03:32:26;94000.00;;;7.40;100.00
50093;BME280;35974;47.752;10.290;2023-05-02T03:34:52;94001.09;;;7.30;100.00
50093;BME280;35974;47.752;10.290;2023-05-02T03:37:23;94008.97;;;7.22;100.00
50093;BME280;35974;47.752;10.290;2023-05-02T03:39:50;94004.66;;;7.29;100.00
50093;BME280;35974;47.752;10.290;2023-05-02T03:42:16;94007.00;;;7.24;100.00
50093;BME280;35974;47.752;10.290;2023-05-02T03:44:42;94013.22;;;7.23;100.00
50093;BME280;35974;47.752;10.290;2023-05-02T03:47:09;94017.50;;;7.31;100.00
50093;BME280;35974;47.752;10.290;2023-05-02T03:49:35;94015.63;;;7.40;100.00
50093;BME280;35974;47.752;10.290;2023-05-02T03:52:01;94012.13;;;7.32;100.00
50093;BME280;35974;47.752;10.290;2023-05-02T03:54:31;94023.09;;;7.28;100.00
50093;BME280;35974;47.752;10.290;2023-05-02T03:56:57;94025.69;;;7.43;100.00
50093;BME280;35974;47.752;10.290;2023-05-02T03:59:24;94024.41;;;7.39;100.00
50093;BME280;35974;47.752;10.290;2023-05-02T04:02:01;94019.38;;;7.52;100.00
50093;BME280;35974;47.752;10.290;2023-05-02T04:04:27;94022.53;;;7.47;100.00
50093;BME280;35974;47.752;10.290;2023-05-02T04:06:53;94026.91;;;7.47;100.00
50093;BME280;35974;47.752;10.290;2023-05-02T04:09:22;94031.59;;;7.51;100.00
50093;BME280;35974;47.752;10.290;2023-05-02T04:11:57;94034.63;;;7.55;100.00
50093;BME280;35974;47.752;10.290;2023-05-02T04:14:24;94035.91;;;7.59;100.00
50093;BME280;35974;47.752;10.290;2023-05-02T04:16:50;94039.13;;;7.61;100.00
50093;BME280;35974;47.752;10.290;2023-05-02T04:19:19;94039.13;;;7.61;100.00
50093;BME280;35974;47.752;10.290;2023-05-02T04:21:45;94044.97;;;7.78;100.00
50093;BME280;35974;47.752;10.290;2023-05-02T04:24:12;94048.47;;;7.70;100.00
50093;BME280;35974;47.752;10.290;2023-05-02T04:26:39;94048.81;;;7.67;100.00
50093;BME280;35974;47.752;10.290;2023-05-02T04:29:06;94053.84;;;7.84;100.00
50093;BME280;35974;47.752;10.290;2023-05-02T04:31:33;94050.34;;;7.77;100.00
50093;BME280;35974;47.752;10.290;2023-05-02T04:34:01;94050.81;;;7.65;100.00
50093;BME280;35974;47.752;10.290;2023-05-02T04:36:29;94060.22;;;7.66;100.00
50093;BME280;35974;47.752;10.290;2023-05-02T04:38:55;94056.47;;;7.69;100.00
50093;BME280;35974;47.752;10.290;2023-05-02T04:41:22;94058.88;;;7.70;100.00
50093;BME280;35974;47.752;10.290;2023-05-02T04:44:02;94057.78;;;7.80;100.00
50093;BME280;35974;47.752;10.290;2023-05-02T04:46:29;94062.63;;;7.83;100.00
50093;BME280;35974;47.752;10.290;2023-05-02T04:48:55;94064.63;;;7.81;100.00
50093;BME280;35974;47.752;10.290;2023-05-02T04:51:22;94071.81;;;7.79;100.00
50093;BME280;35974;47.752;10.290;2023-05-02T04:53:48;94075.56;;;7.91;100.00
50093;BME280;35974;47.752;10.290;2023-05-02T04:56:15;94073.59;;;7.93;100.00
50093;BME280;35974;47.752;10.290;2023-05-02T04:58:41;94076.81;;;7.95;100.00
50093;BME280;35974;47.752;10.290;2023-05-02T05:01:15;94088.50;;;7.99;100.00
50093;BME280;35974;47.752;10.290;2023-05-02T05:03:42;94091.88;;;8.15;100.00
50093;BME280;35974;47.752;10.290;2023-05-02T05:06:21;94099.94;;;8.20;100.00
50093;BME280;35974;47.752;10.290;2023-05-02T05:08:48;94099.31;;;8.18;100.00
50093;BME280;35974;47.752;10.290;2023-05-02T05:11:14;94097.09;;;8.15;100.00
50093;BME280;35974;47.752;10.290;2023-05-02T05:13:44;94101.94;;;8.18;100.00
50093;BME280;35974;47.752;10.290;2023-05-02T05:16:11;94098.81;;;8.07;100.00
50093;BME280;35974;47.752;10.290;2023-05-02T05:18:37;94103.63;;;8.11;100.00
50093;BME280;35974;47.752;10.290;2023-05-02T05:21:10;94101.88;;;8.11;100.00
50093;BME280;35974;47.752;10.290;2023-05-02T05:23:37;94107.50;;;8.15;100.00
50093;BME280;35974;47.752;10.290;2023-05-02T05:26:13;94108.38;;;8.22;100.00
50093;BME280;35974;47.752;10.290;2023-05-02T05:28:44;94107.28;;;8.31;100.00
50093;BME280;35974;47.752;10.290;2023-05-02T05:31:12;94112.41;;;8.39;100.00
50093;BME280;35974;47.752;10.290;2023-05-02T05:33:42;94113.00;;;8.41;100.00
50093;BME280;35974;47.752;10.290;2023-05-02T05:36:09;94116.78;;;8.54;100.00
50093;BME280;35974;47.752;10.290;2023-05-02T05:38:36;94114.44;;;8.59;100.00
50093;BME280;35974;47.752;10.290;2023-05-02T05:41:02;94131.72;;;8.60;100.00
50093;BME280;35974;47.752;10.290;2023-05-02T05:43:30;94120.53;;;8.66;100.00
50093;BME280;35974;47.752;10.290;2023-05-02T05:45:58;94120.53;;;8.66;100.00
50093;BME280;35974;47.752;10.290;2023-05-02T05:48:25;94127.00;;;8.70;100.00
50093;BME280;35974;47.752;10.290;2023-05-02T05:50:52;94129.84;;;8.75;100.00
50093;BME280;35974;47.752;10.290;2023-05-02T05:53:18;94120.66;;;8.79;100.00
50093;BME280;35974;47.752;10.290;2023-05-02T05:55:44;94130.00;;;8.89;100.00
50093;BME280;35974;47.752;10.290;2023-05-02T05:58:11;94124.00;;;8.95;100.00
50093;BME280;35974;47.752;10.290;2023-05-02T06:00:38;94131.09;;;9.01;100.00
50093;BME280;35974;47.752;10.290;2023-05-02T06:03:04;94127.72;;;9.07;100.00
50093;BME280;35974;47.752;10.290;2023-05-02T06:05:34;94129.34;;;9.08;100.00
50093;BME280;35974;47.752;10.290;2023-05-02T06:08:01;94128.44;;;9.23;100.00
50093;BME280;35974;47.752;10.290;2023-05-02T06:10:27;94137.72;;;9.53;100.00
50093;BME280;35974;47.752;10.290;2023-05-02T06:12:53;94136.34;;;9.58;100.00
50093;BME280;35974;47.752;10.290;2023-05-02T06:15:26;94144.19;;;9.58;100.00
50093;BME280;35974;47.752;10.290;2023-05-02T06:17:52;94149.31;;;9.44;100.00
50093;BME280;35974;47.752;10.290;2023-05-02T06:20:18;94146.59;;;9.59;100.00
50093;BME280;35974;47.752;10.290;2023-05-02T06:22:45;94143.13;;;9.80;100.00
50093;BME280;35974;47.752;10.290;2023-05-02T06:25:11;94154.25;;;9.96;100.00
50093;BME280;35974;47.752;10.290;2023-05-02T06:27:38;94147.84;;;9.98;100.00
50093;BME280;35974;47.752;10.290;2023-05-02T06:30:04;94159.75;;;10.01;100.00
50093;BME280;35974;47.752;10.290;2023-05-02T06:32:31;94158.13;;;10.00;100.00
50093;BME280;35974;47.752;10.290;2023-05-02T06:34:58;94158.94;;;10.07;100.00
50093;BME280;35974;47.752;10.290;2023-05-02T06:37:25;94159.41;;;10.17;100.00
50093;BME280;35974;47.752;10.290;2023-05-02T06:39:51;94159.81;;;10.21;100.00
50093;BME280;35974;47.752;10.290;2023-05-02T06:42:17;94157.81;;;10.23;100.00
50093;BME280;35974;47.752;10.290;2023-05-02T06:44:44;94166.03;;;10.13;100.00
50093;BME280;35974;47.752;10.290;2023-05-02T06:47:10;94166.25;;;10.18;100.00
50093;BME280;35974;47.752;10.290;2023-05-02T06:49:37;94168.63;;;10.13;100.00
50093;BME280;35974;47.752;10.290;2023-05-02T06:52:03;94174.63;;;10.07;100.00
50093;BME280;35974;47.752;10.290;2023-05-02T06:54:29;94172.66;;;10.09;100.00
50093;BME280;35974;47.752;10.290;2023-05-02T06:56:56;94175.66;;;10.06;100.00
50093;BME280;35974;47.752;10.290;2023-05-02T06:59:22;94178.50;;;10.11;100.00
50093;BME280;35974;47.752;10.290;2023-05-02T07:01:48;94176.91;;;10.23;100.00
50093;BME280;35974;47.752;10.290;2023-05-02T07:04:15;94174.31;;;10.23;100.00
50093;BME280;35974;47.752;10.290;2023-05-02T07:06:41;94181.94;;;10.18;100.00
50093;BME280;35974;47.752;10.290;2023-05-02T07:09:08;94187.09;;;10.05;100.00
50093;BME280;35974;47.752;10.290;2023-05-02T07:11:34;94188.72;;;10.06;100.00
50093;BME280;35974;47.752;10.290;2023-05-02T07:14:01;94190.69;;;10.04;100.00
50093;BME280;35974;47.752;10.290;2023-05-02T07:16:27;94180.66;;;10.01;100.00
50093;BME280;35974;47.752;10.290;2023-05-02T07:18:53;94189.19;;;9.81;100.00
50093;BME280;35974;47.752;10.290;2023-05-02T07:21:20;94196.53;;;9.71;100.00
50093;BME280;35974;47.752;10.290;2023-05-02T07:23:46;94199.22;;;9.84;100.00
50093;BME280;35974;47.752;10.290;2023-05-02T07:26:12;94195.94;;;10.04;100.00
50093;BME280;35974;47.752;10.290;2023-05-02T07:28:39;94199.56;;;10.03;100.00
50093;BME280;35974;47.752;10.290;2023-05-02T07:31:05;94196.03;;;10.17;100.00
50093;BME280;35974;47.752;10.290;2023-05-02T07:33:32;94195.16;;;10.10;100.00
50093;BME280;35974;47.752;10.290;2023-05-02T07:35:58;94204.03;;;10.09;100.00
50093;BME280;35974;47.752;10.290;2023-05-02T07:38:26;94198.09;;;10.29;100.00
50093;BME280;35974;47.752;10.290;2023-05-02T07:40:56;94199.56;;;10.38;100.00
50093;BME280;35974;47.752;10.290;2023-05-02T07:43:22;94198.63;;;10.52;100.00
50093;BME280;35974;47.752;10.290;2023-05-02T07:45:48;94200.25;;;10.53;100.00
50093;BME280;35974;47.752;10.290;2023-05-02T07:48:15;94199.28;;;10.61;100.00
50093;BME280;35974;47.752;10.290;2023-05-02T07:50:42;94199.13;;;10.76;100.00
50093;BME280;35974;47.752;10.290;2023-05-02T07:53:09;94203.06;;;10.58;100.00
50093;BME280;35974;47.752;10.290;2023-05-02T07:55:36;94205.91;;;10.63;100.00
50093;BME280;35974;47.752;10.290;2023-05-02T07:58:02;94207.56;;;10.78;100.00
50093;BME280;35974;47.752;10.290;2023-05-02T08:00:29;94202.25;;;10.51;100.00
50093;BME280;35974;47.752;10.290;2023-05-02T08:02:55;94213.97;;;10.69;100.00
50093;BME280;35974;47.752;10.290;2023-05-02T08:05:22;94219.09;;;10.90;100.00
50093;BME280;35974;47.752;10.290;2023-05-02T08:07:49;94218.94;;;10.98;100.00
50093;BME280;35974;47.752;10.290;2023-05-02T08:10:27;94214.47;;;10.92;100.00
50093;BME280;35974;47.752;10.290;2023-05-02T08:12:54;94224.94;;;10.92;100.00
50093;BME280;35974;47.752;10.290;2023-05-02T08:15:20;94232.56;;;10.80;100.00
50093;BME280;35974;47.752;10.290;2023-05-02T08:17:46;94232.50;;;10.74;100.00
50093;BME280;35974;47.752;10.290;2023-05-02T08:20:13;94232.13;;;10.77;100.00
50093;BME280;35974;47.752;10.290;2023-05-02T08:22:39;94229.75;;;10.82;100.00
50093;BME280;35974;47.752;10.290;2023-05-02T08:25:06;94232.94;;;10.71;100.00
50093;BME280;35974;47.752;10.290;2023-05-02T08:27:32;94235.00;;;10.82;100.00
50093;BME280;35974;47.752;10.290;2023-05-02T08:30:00;94242.25;;;10.93;100.00
50093;BME280;35974;47.752;10.290;2023-05-02T08:32:27;94231.84;;;11.07;100.00
50093;BME280;35974;47.752;10.290;2023-05-02T08:34:55;94240.66;;;10.99;100.00
50093;BME280;35974;47.752;10.290;2023-05-02T08:37:24;94234.63;;;10.98;100.00
50093;BME280;35974;47.752;10.290;2023-05-02T08:39:51;94235.81;;;10.89;100.00
50093;BME280;35974;47.752;10.290;2023-05-02T08:42:17;94233.81;;;11.05;100.00
50093;BME280;35974;47.752;10.290;2023-05-02T08:44:46;94239.47;;;11.02;100.00
50093;BME280;35974;47.752;10.290;2023-05-02T08:47:13;94241.47;;;10.99;100.00
50093;BME280;35974;47.752;10.290;2023-05-02T08:49:46;94236.72;;;11.36;100.00
50093;BME280;35974;47.752;10.290;2023-05-02T08:52:13;94235.94;;;11.56;100.00
50093;BME280;35974;47.752;10.290;2023-05-02T08:54:41;94240.56;;;11.41;100.00
50093;BME280;35974;47.752;10.290;2023-05-02T08:57:08;94235.75;;;11.64;100.00
50093;BME280;35974;47.752;10.290;2023-05-02T08:59:34;94234.72;;;12.05;100.00
50093;BME280;35974;47.752;10.290;2023-05-02T09:02:04;94239.59;;;11.95;100.00
50093;BME280;35974;47.752;10.290;2023-05-02T09:04:32;94239.56;;;12.08;100.00
50093;BME280;35974;47.752;10.290;2023-05-02T09:07:00;94248.03;;;11.84;100.00
50093;BME280;35974;47.752;10.290;2023-05-02T09:09:26;94244.84;;;11.95;100.00
50093;BME280;35974;47.752;10.290;2023-05-02T09:11:54;94243.13;;;12.61;100.00
50093;BME280;35974;47.752;10.290;2023-05-02T09:14:20;94241.81;;;11.98;100.00
50093;BME280;35974;47.752;10.290;2023-05-02T09:16:46;94245.22;;;11.79;100.00
50093;BME280;35974;47.752;10.290;2023-05-02T09:19:22;94248.25;;;11.89;100.00
50093;BME280;35974;47.752;10.290;2023-05-02T09:21:49;94249.28;;;12.01;100.00
50093;BME280;35974;47.752;10.290;2023-05-02T09:24:16;94250.50;;;11.92;100.00
50093;BME280;35974;47.752;10.290;2023-05-02T09:27:02;94260.16;;;12.12;100.00
50093;BME280;35974;47.752;10.290;2023-05-02T09:29:30;94257.75;;;12.03;100.00
50093;BME280;35974;47.752;10.290;2023-05-02T09:32:01;94252.13;;;11.93;100.00
50093;BME280;35974;47.752;10.290;2023-05-02T09:34:29;94259.34;;;11.91;100.00
50093;BME280;35974;47.752;10.290;2023-05-02T09:36:58;94263.38;;;12.00;100.00
50093;BME280;35974;47.752;10.290;2023-05-02T09:39:25;94267.38;;;11.76;100.00
50093;BME280;35974;47.752;10.290;2023-05-02T09:41:52;94265.59;;;11.90;100.00
50093;BME280;35974;47.752;10.290;2023-05-02T09:44:22;94270.22;;;11.75;100.00
50093;BME280;35974;47.752;10.290;2023-05-02T09:46:49;94264.59;;;11.91;100.00
50093;BME280;35974;47.752;10.290;2023-05-02T09:49:16;94263.78;;;12.24;100.00
50093;BME280;35974;47.752;10.290;2023-05-02T09:51:46;94258.91;;;12.34;100.00
50093;BME280;35974;47.752;10.290;2023-05-02T09:54:13;94265.38;;;12.38;100.00
50093;BME280;35974;47.752;10.290;2023-05-02T09:56:55;94261.72;;;12.39;100.00
50093;BME280;35974;47.752;10.290;2023-05-02T09:59:22;94256.44;;;12.66;100.00
50093;BME280;35974;47.752;10.290;2023-05-02T10:01:55;94263.13;;;12.49;100.00
50093;BME280;35974;47.752;10.290;2023-05-02T10:04:22;94262.88;;;12.63;100.00
50093;BME280;35974;47.752;10.290;2023-05-02T10:06:50;94268.53;;;12.74;100.00
50093;BME280;35974;47.752;10.290;2023-05-02T10:09:16;94265.69;;;12.75;100.00
50093;BME280;35974;47.752;10.290;2023-05-02T10:11:50;94264.06;;;12.74;100.00
50093;BME280;35974;47.752;10.290;2023-05-02T10:14:17;94272.47;;;12.96;100.00
50093;BME280;35974;47.752;10.290;2023-05-02T10:16:46;94259.56;;;12.95;100.00
50093;BME280;35974;47.752;10.290;2023-05-02T10:19:16;94266.09;;;12.72;100.00
50093;BME280;35974;47.752;10.290;2023-05-02T10:21:44;94266.75;;;13.06;100.00
50093;BME280;35974;47.752;10.290;2023-05-02T10:24:11;94268.09;;;12.77;100.00
50093;BME280;35974;47.752;10.290;2023-05-02T10:26:38;94268.09;;;12.70;100.00
50093;BME280;35974;47.752;10.290;2023-05-02T10:29:04;94269.84;;;12.90;100.00
50093;BME280;35974;47.752;10.290;2023-05-02T10:31:32;94262.44;;;12.73;100.00
50093;BME280;35974;47.752;10.290;2023-05-02T10:33:58;94265.63;;;12.89;100.00
50093;BME280;35974;47.752;10.290;2023-05-02T10:36:26;94258.25;;;13.11;100.00
50093;BME280;35974;47.752;10.290;2023-05-02T10:38:53;94261.03;;;13.23;100.00
50093;BME280;35974;47.752;10.290;2023-05-02T10:41:21;94255.84;;;13.09;100.00
50093;BME280;35974;47.752;10.290;2023-05-02T10:43:48;94257.38;;;13.24;100.00
50093;BME280;35974;47.752;10.290;2023-05-02T10:49:01;94252.00;;;13.50;100.00
50093;BME280;35974;47.752;10.290;2023-05-02T10:51:28;94259.38;;;13.35;100.00
50093;BME280;35974;47.752;10.290;2023-05-02T11:01:57;94248.81;;;13.99;100.00
50093;BME280;35974;47.752;10.290;2023-05-02T11:04:24;94243.66;;;13.85;100.00
50093;BME280;35974;47.752;10.290;2023-05-02T11:11:56;94257.94;;;12.94;100.00
50093;BME280;35974;47.752;10.290;2023-05-02T11:19:25;94245.81;;;13.70;100.00
50093;BME280;35974;47.752;10.290;2023-05-02T11:22:28;94237.91;;;14.39;99.25
50093;BME280;35974;47.752;10.290;2023-05-02T11:24:39;94241.81;;;14.55;99.60
50093;BME280;35974;47.752;10.290;2023-05-02T11:27:52;94244.91;;;14.70;100.00
50093;BME280;35974;47.752;10.290;2023-05-02T11:29:53;94249.09;;;14.59;100.00
50093;BME280;35974;47.752;10.290;2023-05-02T11:32:20;94251.06;;;14.64;100.00
50093;BME280;35974;47.752;10.290;2023-05-02T11:34:48;94247.44;;;14.58;100.00
50093;BME280;35974;47.752;10.290;2023-05-02T11:37:18;94238.19;;;14.12;100.00
50093;BME280;35974;47.752;10.290;2023-05-02T11:39:45;94245.94;;;14.07;96.31
50093;BME280;35974;47.752;10.290;2023-05-02T11:45:01;94245.41;;;14.97;99.90
50093;BME280;35974;47.752;10.290;2023-05-02T11:47:31;94242.13;;;15.32;94.94
50093;BME280;35974;47.752;10.290;2023-05-02T11:49:58;94247.63;;;14.82;92.96
50093;BME280;35974;47.752;10.290;2023-05-02T11:52:27;94244.84;;;14.77;93.30
50093;BME280;35974;47.752;10.290;2023-05-02T11:57:29;94252.09;;;14.38;95.06
50093;BME280;35974;47.752;10.290;2023-05-02T12:00:00;94254.75;;;14.56;93.57
50093;BME280;35974;47.752;10.290;2023-05-02T12:02:42;94267.84;;;13.37;97.47
50093;BME280;35974;47.752;10.290;2023-05-02T12:05:10;94271.34;;;12.72;100.00
50093;BME280;35974;47.752;10.290;2023-05-02T12:07:40;94270.63;;;12.25;100.00
50093;BME280;35974;47.752;10.290;2023-05-02T12:10:08;94272.63;;;12.50;100.00
50093;BME280;35974;47.752;10.290;2023-05-02T12:12:38;94265.34;;;12.52;100.00
50093;BME280;35974;47.752;10.290;2023-05-02T12:15:12;94272.28;;;12.13;100.00
50093;BME280;35974;47.752;10.290;2023-05-02T12:17:45;94272.03;;;11.54;100.00
50093;BME280;35974;47.752;10.290;2023-05-02T12:20:16;94274.44;;;11.49;100.00
50093;BME280;35974;47.752;10.290;2023-05-02T12:22:42;94281.88;;;11.39;100.00
50093;BME280;35974;47.752;10.290;2023-05-02T12:25:14;94278.59;;;11.10;100.00
50093;BME280;35974;47.752;10.290;2023-05-02T12:27:40;94274.84;;;10.84;100.00
50093;BME280;35974;47.752;10.290;2023-05-02T12:33:08;94279.72;;;10.87;100.00
50093;BME280;35974;47.752;10.290;2023-05-02T12:35:37;94272.88;;;10.93;100.00
50093;BME280;35974;47.752;10.290;2023-05-02T12:38:21;94274.50;;;11.01;100.00
50093;BME280;35974;47.752;10.290;2023-05-02T12:40:52;94278.69;;;10.88;100.00
50093;BME280;35974;47.752;10.290;2023-05-02T12:43:19;94277.34;;;11.06;100.00
50093;BME280;35974;47.752;10.290;2023-05-02T12:45:47;94279.03;;;11.27;100.00
50093;BME280;35974;47.752;10.290;2023-05-02T12:48:26;94281.88;;;11.39;100.00
50093;BME280;35974;47.752;10.290;2023-05-02T12:50:53;94288.16;;;11.64;100.00
50093;BME280;35974;47.752;10.290;2023-05-02T12:56:07;94279.94;;;12.07;100.00
50093;BME280;35974;47.752;10.290;2023-05-02T12:58:40;94273.06;;;12.20;100.00
50093;BME280;35974;47.752;10.290;2023-05-02T13:01:08;94267.84;;;12.00;100.00
50093;BME280;35974;47.752;10.290;2023-05-02T13:03:49;94271.06;;;11.95;100.00
50093;BME280;35974;47.752;10.290;2023-05-02T13:06:16;94273.88;;;12.00;100.00
50093;BME280;35974;47.752;10.290;2023-05-02T13:11:14;94274.28;;;11.97;100.00
50093;BME280;35974;47.752;10.290;2023-05-02T13:13:41;94277.91;;;11.89;100.00
50093;BME280;35974;47.752;10.290;2023-05-02T13:16:10;94273.88;;;12.00;100.00
50093;BME280;35974;47.752;10.290;2023-05-02T13:18:37;94275.91;;;12.05;100.00
50093;BME280;35974;47.752;10.290;2023-05-02T13:21:09;94276.72;;;12.19;100.00
50093;BME280;35974;47.752;10.290;2023-05-02T13:23:36;94266.22;;;12.19;100.00
50093;BME280;35974;47.752;10.290;2023-05-02T13:26:04;94267.81;;;12.20;100.00
50093;BME280;35974;47.752;10.290;2023-05-02T13:28:30;94266.56;;;12.42;100.00
50093;BME280;35974;47.752;10.290;2023-05-02T13:30:59;94275.28;;;12.16;100.00
50093;BME280;35974;47.752;10.290;2023-05-02T13:33:35;94266.78;;;12.34;100.00
50093;BME280;35974;47.752;10.290;2023-05-02T13:38:31;94267.38;;;12.50;100.00
50093;BME280;35974;47.752;10.290;2023-05-02T13:40:57;94264.88;;;12.68;100.00
50093;BME280;35974;47.752;10.290;2023-05-02T13:43:27;94263.72;;;12.64;100.00
50093;BME280;35974;47.752;10.290;2023-05-02T13:46:03;94261.09;;;12.51;100.00